Nearby METAR Reports

 

KIMT - Iron Mountain, Michigan, USA
Distance from station: 0 29mi, 47km
Updated: Sat, 18-Jan-2020 10:26pm CST
Light snow, Overcast
Light snow, Overcast
 Wind from WNW
Wind: WNW 16 mph , 26 km/h, Gust: 24 mph , 39 km/h
Temperature: 21°F , -6°C
Wind Chill: 7°F , -14°C
Dew Point: 18°F , -8°C
Humidity: 86%
Barometer: 29.67 inHg , 1004.7 hPa
Summary: Light Snow
Clouds: Overcast
Visibility: 3/4 mile , 1.2 km
Cloud details: Partly cloudy 1500 ft
Overcast 2400 ft
2020/01/19 04:26 KIMT 190426Z AUTO 29014G21KT 3/4SM -SN SCT015 OVC024 M06/M08 A2967 RMK AO2 PK WND 29026/0409 P0000 T10561083
KMNM - Menominee, Michigan, USA
Distance from station: SE 31mi, 51km
Updated: Sat, 18-Jan-2020 9:56pm CST
Light snow, Overcast
Light snow, Overcast
 Wind from W
Wind: W 12 mph , 19 km/h, Gust: 16 mph , 26 km/h
Temperature: 23°F , -5°C
Wind Chill: 11°F , -12°C
Dew Point: 18°F , -8°C
Humidity: 80%
Barometer: 29.71 inHg , 1006.1 hPa
Summary: Light Snow
Clouds: Overcast
Visibility: 10 miles , 16 km
Cloud details: Overcast 2700 ft
2020/01/19 03:56 KMNM 190356Z AUTO 27010G14KT 10SM -SN OVC027 M05/M08 A2971 RMK AO2 SLP068 P0000 T10501083 FZRANO $
 
KOCQ - Oconto, Wisconsin, USA
Distance from station: SSE 38mi, 61km
Updated: Sat, 18-Jan-2020 10:15pm CST
Overcast
Overcast
 Wind from W
Wind: W 18 mph , 30 km/h, Gust: 24 mph , 39 km/h
Temperature: 18°F , -8°C
Wind Chill: 2°F , -17°C
Dew Point: 10°F , -12°C
Humidity: 73%
Barometer: 29.76 inHg , 1007.8 hPa
Clouds: Overcast
Visibility: 10 miles , 16 km
Cloud details: Overcast 10000 ft
2020/01/19 04:15 KOCQ 190415Z AUTO 28016G21KT 10SM OVC100 M08/M12 A2976 RMK AO1 T10821118
KEZS - Shawano Muni, Wisconsin, USA
Distance from station: SSW 48mi, 77km
Updated: Sat, 18-Jan-2020 10:35pm CST
Overcast
Overcast
 Wind from W
Wind: W 13 mph , 20 km/h, Gust: 22 mph , 35 km/h
Temperature: 16°F , -9°C
Wind Chill: 2°F , -17°C
Dew Point: 9°F , -13°C
Humidity: 73%
Barometer: 29.81 inHg , 1009.5 hPa
Clouds: Overcast
Visibility: 10 miles , 16 km
Cloud details: Overcast 10000 ft
2020/01/19 04:35 KEZS 190435Z AUTO 28011G19KT 10SM OVC100 M09/M13 A2981 RMK AO2 T10911133
 
KAIG - Antigo/Langlade, Wisconsin, USA
Distance from station: WSW 51mi, 82km
Updated: Sat, 18-Jan-2020 10:15pm CST

 Wind from WNW
Wind: WNW 22 mph , 35 km/h, Gust: 26 mph , 43 km/h
Temperature: 10°F , -12°C
Wind Chill: -10°F , -23°C
Dew Point: 5°F , -15°C
Humidity: 79%
Barometer: 29.76 inHg , 1007.8 hPa
Visibility: 7 miles , 11 km
2020/01/19 04:15 KAIG 190415Z AUTO 29019G23KT 7SM M12/M15 A2976 RMK AO2 T11211146
KSUE - Sturgeon Bay, Wisconsin, USA
Distance from station: SE 51mi, 82km
Updated: Sat, 18-Jan-2020 9:56pm CST
Light snow, Overcast
Light snow, Overcast
 
Temperature: 18°F , -8°C
Dew Point: 12°F , -11°C
Humidity: 79%
Barometer: 29.73 inHg , 1006.8 hPa
Summary: Light Snow
Clouds: Overcast
Visibility: 9 miles , 14 km
Cloud details: Overcast 2700 ft
2020/01/19 03:56 KSUE 190356Z AUTO 9SM -SN OVC027 M08/M11 A2973 RMK AO2 SLP076 P0000 T10781106 FZRANO $
 
KESC - Escanaba, Michigan, USA
Distance from station: ENE 56mi, 90km
Updated: Sat, 18-Jan-2020 10:25pm CST
Light snow, Mist, Overcast
Light snow, Mist, Overcast
 Wind from WNW
Wind: WNW 7 mph , 11 km/h
Temperature: 27°F , -3°C
Wind Chill: 19°F , -7°C
Dew Point: 23°F , -5°C
Humidity: 86%
Barometer: 29.67 inHg , 1004.7 hPa
Summary: Light snow, Mist
Clouds: Overcast
Visibility: 2 1/2 miles , 4 km
Cloud details: Few Clouds 900 ft
Mostly cloudy 2400 ft
Overcast 3000 ft
2020/01/19 04:25 KESC 190425Z AUTO 29006KT 2 1/2SM -SN BR FEW009 BKN024 OVC030 M03/M05 A2967 RMK AO2 P0000 FZRANO
KCLI - Clintonville, Wisconsin, USA
Distance from station: SSW 62mi, 99km
Updated: Sat, 18-Jan-2020 10:15pm CST
Overcast
Overcast
 Wind from WNW
Wind: WNW 17 mph , 28 km/h, Gust: 29 mph , 46 km/h
Temperature: 12°F , -11°C
Wind Chill: -5°F , -21°C
Dew Point: 5°F , -15°C
Humidity: 73%
Barometer: 29.84 inHg , 1010.5 hPa
Clouds: Overcast
Visibility: 10 miles , 16 km
Cloud details: Partly cloudy 6500 ft
Overcast 10000 ft
2020/01/19 04:15 KCLI 190415Z AUTO 29015G25KT 10SM SCT065 OVC100 M11/M15 A2984 RMK AO2 T11071153
 
KGRB - Ashwaubenon, Wisconsin, USA
Distance from station: S 63mi, 102km
Updated: Sat, 18-Jan-2020 9:53pm CST
Haze, Overcast
Haze, Overcast
 Wind from W
Wind: W 24 mph , 39 km/h, Gust: 39 mph , 63 km/h
Temperature: 14°F , -10°C
Wind Chill: -5°F , -21°C
Dew Point: 7°F , -14°C
Humidity: 73%
Barometer: 29.80 inHg , 1009.1 hPa
Summary: Haze
Clouds: Overcast
Visibility: 5 miles , 8 km
Cloud details: Mostly cloudy 3300 ft
Overcast 10000 ft
2020/01/19 03:53 KGRB 190353Z 27021G34KT 5SM HZ BKN033 OVC100 M10/M14 A2980 RMK AO2 PK WND 26034/0350 SLP102 T11001144
KEGV - Eagle River, Wisconsin, USA
Distance from station: NW 66mi, 107km
Updated: Sat, 18-Jan-2020 10:15pm CST
Light snow, Overcast
Light snow, Overcast
 Wind from WNW
Wind: WNW 14 mph , 22 km/h, Gust: 21 mph , 33 km/h
Temperature: 14°F , -10°C
Wind Chill: -1°F , -18°C
Dew Point: 9°F , -13°C
Humidity: 79%
Barometer: 29.74 inHg , 1007.1 hPa
Summary: Light Snow
Clouds: Overcast
Visibility: 2 1/2 miles , 4 km
Cloud details: Overcast 1700 ft
2020/01/19 04:15 KEGV 190415Z AUTO 30012G18KT 2 1/2SM -SN OVC017 M10/M13 A2974 RMK AO2 T11001127
 
KRHI - Rhinelander, Wisconsin, USA
Distance from station: WNW 68mi, 109km
Updated: Sat, 18-Jan-2020 10:20pm CST
Light snow, Overcast
Light snow, Overcast
 Wind from W
Wind: W 17 mph , 28 km/h, Gust: 24 mph , 39 km/h
Temperature: 10°F , -12°C
Wind Chill: -8°F , -22°C
Dew Point: 5°F , -15°C
Humidity: 79%
Barometer: 29.78 inHg , 1008.5 hPa
Summary: Light Snow
Clouds: Overcast
Visibility: 4 miles , 6 km
Cloud details: Partly cloudy 1600 ft
Mostly cloudy 8000 ft
Overcast 9500 ft
2020/01/19 04:20 KRHI 190420Z AUTO 28015G21KT 4SM -SN SCT016 BKN080 OVC095 M12/M15 A2978 RMK AO2 P0000 T11221150 $
KLNL - Land O Lakes, Wisconsin, USA
Distance from station: NW 74mi, 119km
Updated: Sat, 18-Jan-2020 10:15pm CST
Light snow, Overcast
Light snow, Overcast
 Wind from W
Wind: W 9 mph , 15 km/h, Gust: 21 mph , 33 km/h
Temperature: 16°F , -9°C
Wind Chill: 5°F , -15°C
Dew Point: 12°F , -11°C
Humidity: 86%
Barometer: 29.74 inHg , 1007.1 hPa
Summary: Light Snow
Clouds: Overcast
Visibility: 3/4 mile , 1.2 km
Cloud details: Overcast 400 ft
2020/01/19 04:15 KLNL 190415Z AUTO 28008G18KT 3/4SM -SN OVC004 M09/M11 A2974 RMK AO2 T10901107
 
KSAW - Gwinn/Sawyer, Michigan, USA
Distance from station: NNE 74mi, 120km
Updated: Sat, 18-Jan-2020 10:19pm CST
Light snow, Overcast
Light snow, Overcast
 Wind from N
Wind: N 12 mph , 19 km/h
Temperature: 25°F , -4°C
Wind Chill: 14°F , -10°C
Dew Point: 23°F , -5°C
Humidity: 93%
Barometer: 29.63 inHg , 1003.4 hPa
Summary: Light Snow
Clouds: Overcast
Visibility: 7 miles , 11 km
Cloud details: Partly cloudy 1100 ft
Mostly cloudy 3500 ft
Overcast 4200 ft
2020/01/19 04:19 KSAW 190419Z AUTO 36010KT 7SM -SN SCT011 BKN035 OVC042 M04/M05 A2963 RMK AO2 T10371055